Time;durP1;ratioP1;P1;durP2;ratioP2;P2;SDS_P1;SDS_P2;PMS_P1;PMS_P2;Temp;Humidity;BMP_temperature;BMP_pressure;BME280_temperature;BME280_humidity;BME280_pressure;Samples;Min_cycle;Max_cycle;Signal;HPM_P1;HPM_P2
2021/12/28 00:01:12;;;;;;;61.65;33.63;;;;;;;7.64;100.00;94339.34;5109949;27;20047;-72
2021/12/28 00:03:42;;;;;;;66.32;34.35;;;;;;;7.82;100.00;94346.22;5109281;27;20092;-73
2021/12/28 00:06:09;;;;;;;74.25;35.05;;;;;;;7.65;100.00;94346.13;5111014;27;20036;-73
2021/12/28 00:08:37;;;;;;;76.65;35.28;;;;;;;7.63;100.00;94336.97;5112774;27;20032;-72
2021/12/28 00:11:05;;;;;;;74.07;38.42;;;;;;;7.47;100.00;94344.41;5106237;27;20031;-72
2021/12/28 00:13:33;;;;;;;71.32;37.70;;;;;;;7.68;100.00;94344.88;5112655;27;20404;-72
2021/12/28 00:18:36;;;;;;;71.40;36.92;;;;;;;7.70;100.00;94332.47;5116470;27;20118;-73
2021/12/28 00:21:05;;;;;;;65.25;36.22;;;;;;;7.67;100.00;94338.13;5109342;27;20047;-72
2021/12/28 00:23:41;;;;;;;61.55;32.75;;;;;;;7.74;100.00;94338.78;5111918;27;20492;-73
2021/12/28 00:26:13;;;;;;;61.63;34.13;;;;;;;7.82;100.00;94338.44;5115193;27;20058;-72
2021/12/28 00:28:42;;;;;;;59.13;31.77;;;;;;;7.75;100.00;94337.75;5106566;27;20049;-72
2021/12/28 00:31:11;;;;;;;46.63;25.10;;;;;;;7.66;100.00;94344.31;5091706;28;20082;-72
2021/12/28 00:33:38;;;;;;;35.42;21.30;;;;;;;7.17;100.00;94343.66;5109511;27;20113;-73
2021/12/28 00:36:05;;;;;;;37.90;21.50;;;;;;;7.50;100.00;94335.38;5107928;27;20105;-72
2021/12/28 00:38:33;;;;;;;38.28;21.40;;;;;;;6.67;100.00;94335.13;5117073;27;20051;-73
2021/12/28 00:41:03;;;;;;;36.03;20.17;;;;;;;6.63;100.00;94328.81;5108542;27;20052;-73
2021/12/28 00:43:31;;;;;;;39.97;20.38;;;;;;;6.80;100.00;94339.34;5107355;27;20038;-73
2021/12/28 00:45:59;;;;;;;25.23;13.80;;;;;;;6.04;100.00;94323.31;5112076;27;20045;-73
2021/12/28 00:48:26;;;;;;;23.30;12.32;;;;;;;5.75;100.00;94332.50;5104933;27;20036;-73
2021/12/28 00:50:53;;;;;;;25.38;12.05;;;;;;;5.53;100.00;94326.94;5116943;27;20401;-72
2021/12/28 00:53:20;;;;;;;22.23;11.95;;;;;;;5.61;100.00;94331.03;5108237;27;20047;-72
2021/12/28 00:55:47;;;;;;;18.05;11.18;;;;;;;6.23;100.00;94326.69;5092713;27;20043;-73
2021/12/28 00:58:15;;;;;;;21.65;10.95;;;;;;;6.63;100.00;94323.66;5114762;27;20114;-72
2021/12/28 01:00:44;;;;;;;20.02;10.80;;;;;;;6.68;100.00;94310.84;5090461;28;20051;-73
2021/12/28 01:03:12;;;;;;;18.02;9.93;;;;;;;6.88;100.00;94331.28;5110637;27;20108;-73
2021/12/28 01:05:39;;;;;;;18.80;10.43;;;;;;;6.98;100.00;94328.16;5115948;27;20047;-73
2021/12/28 01:08:08;;;;;;;15.30;9.18;;;;;;;6.87;100.00;94323.72;5109537;27;20040;-73
2021/12/28 01:10:45;;;;;;;21.00;11.13;;;;;;;7.10;100.00;94325.63;5109053;27;20533;-73
2021/12/28 01:13:13;;;;;;;16.55;8.52;;;;;;;7.23;100.00;94332.41;5086639;28;20042;-73
2021/12/28 01:15:40;;;;;;;19.08;9.77;;;;;;;7.22;100.00;94315.25;5111242;28;20035;-72
2021/12/28 01:18:08;;;;;;;18.35;9.00;;;;;;;7.13;100.00;94332.13;5116623;28;20042;-73
2021/12/28 01:20:35;;;;;;;19.85;9.18;;;;;;;7.08;100.00;94343.97;5110653;28;20050;-73
2021/12/28 01:23:04;;;;;;;23.08;11.23;;;;;;;7.21;100.00;94329.25;5110131;28;20039;-73
2021/12/28 01:25:32;;;;;;;21.55;11.57;;;;;;;7.04;100.00;94329.88;5109579;28;20504;-73
2021/12/28 01:27:59;;;;;;;19.25;9.43;;;;;;;7.09;100.00;94342.16;5104319;28;20042;-73
2021/12/28 01:30:27;;;;;;;17.08;9.32;;;;;;;7.30;100.00;94343.44;5086316;28;20044;-73
2021/12/28 01:32:58;;;;;;;16.52;8.73;;;;;;;7.31;100.00;94339.06;5121132;28;20040;-73
2021/12/28 01:35:27;;;;;;;19.02;8.20;;;;;;;6.64;100.00;94334.78;5103179;28;20428;-73
2021/12/28 01:37:55;;;;;;;10.25;6.38;;;;;;;6.54;100.00;94330.13;5112182;28;20039;-73
2021/12/28 01:40:26;;;;;;;18.80;9.27;;;;;;;6.63;100.00;94348.72;5108152;28;20052;-73
2021/12/28 01:43:17;;;;;;;11.02;6.40;;;;;;;6.68;100.00;94349.66;5108647;28;20564;-73
2021/12/28 01:45:59;;;;;;;11.32;6.22;;;;;;;6.74;100.00;94349.81;5107134;28;20451;-73
2021/12/28 01:48:33;;;;;;;12.85;7.13;;;;;;;6.88;100.00;94341.63;5110276;28;20420;-73
2021/12/28 01:51:08;;;;;;;10.00;5.07;;;;;;;7.15;100.00;94345.66;5106444;28;20043;-72
2021/12/28 01:53:36;;;;;;;8.45;5.18;;;;;;;7.32;100.00;94351.78;5105139;28;20065;-73
2021/12/28 01:56:08;;;;;;;9.30;5.70;;;;;;;7.47;100.00;94352.16;5114979;28;20058;-73
2021/12/28 01:58:35;;;;;;;8.23;5.47;;;;;;;7.52;100.00;94345.53;5111757;28;20058;-73
2021/12/28 02:01:05;;;;;;;7.85;4.32;;;;;;;7.23;100.00;94332.41;5107167;28;20121;-73
2021/12/28 02:03:33;;;;;;;11.65;5.82;;;;;;;7.28;100.00;94353.25;5089297;28;20040;-73
2021/12/28 02:06:00;;;;;;;7.22;5.50;;;;;;;7.11;100.00;94334.16;5110522;28;20509;-73
2021/12/28 02:08:27;;;;;;;10.65;4.53;;;;;;;7.13;100.00;94342.50;5106490;28;20043;-73
2021/12/28 02:10:55;;;;;;;8.55;5.20;;;;;;;7.21;100.00;94349.97;5103568;28;20039;-73
2021/12/28 02:13:24;;;;;;;11.43;7.05;;;;;;;7.19;100.00;94352.00;5088060;28;20043;-73
2021/12/28 02:15:52;;;;;;;12.48;6.35;;;;;;;7.25;100.00;94348.50;5107883;28;20442;-73
2021/12/28 02:18:21;;;;;;;10.25;4.43;;;;;;;7.24;100.00;94349.53;5102891;27;20078;-73
2021/12/28 02:20:49;;;;;;;12.02;5.07;;;;;;;7.07;100.00;94350.13;5119815;27;20067;-73
2021/12/28 02:23:17;;;;;;;9.57;5.05;;;;;;;7.00;100.00;94339.06;5111659;27;20043;-73
2021/12/28 02:25:44;;;;;;;16.33;6.90;;;;;;;6.88;100.00;94325.31;5115777;27;20039;-74
2021/12/28 02:28:13;;;;;;;9.20;5.78;;;;;;;7.10;100.00;94337.78;5108502;27;20063;-73
2021/12/28 02:30:45;;;;;;;10.52;5.10;;;;;;;6.97;100.00;94339.53;5116673;27;20058;-73
2021/12/28 02:33:12;;;;;;;11.23;5.45;;;;;;;7.00;100.00;94333.91;5109689;27;20111;-73
2021/12/28 02:35:40;;;;;;;9.18;4.82;;;;;;;7.18;100.00;94329.69;5110481;27;20612;-73
2021/12/28 02:38:09;;;;;;;9.30;5.40;;;;;;;7.36;100.00;94332.19;5111869;27;20032;-73
2021/12/28 02:40:38;;;;;;;9.48;5.32;;;;;;;7.49;100.00;94322.63;5114242;27;20108;-73
2021/12/28 02:43:07;;;;;;;10.63;4.63;;;;;;;7.66;100.00;94336.53;5114297;27;20044;-73
2021/12/28 02:45:37;;;;;;;8.85;5.15;;;;;;;7.83;100.00;94332.25;5093508;28;20039;-73
2021/12/28 02:48:06;;;;;;;8.98;4.53;;;;;;;7.93;100.00;94336.09;5113035;27;20040;-73
2021/12/28 02:50:39;;;;;;;9.85;5.18;;;;;;;7.97;100.00;94342.38;5109967;27;20159;-73
2021/12/28 02:53:06;;;;;;;8.00;5.68;;;;;;;7.97;100.00;94337.22;5106648;27;20794;-73
2021/12/28 02:55:35;;;;;;;7.97;5.18;;;;;;;7.77;100.00;94322.78;5107327;27;20126;-73
2021/12/28 02:58:13;;;;;;;9.52;5.05;;;;;;;7.96;100.00;94320.06;5109482;27;20050;-73
2021/12/28 03:00:53;;;;;;;8.02;4.78;;;;;;;7.47;100.00;94328.84;5113487;27;20477;-74
2021/12/28 03:03:23;;;;;;;8.57;4.90;;;;;;;7.24;100.00;94324.41;5110770;27;20509;-73
2021/12/28 03:05:52;;;;;;;10.90;5.18;;;;;;;7.36;100.00;94328.81;5106570;27;20036;-73
2021/12/28 03:08:22;;;;;;;11.00;5.22;;;;;;;7.42;100.00;94331.31;5113315;27;20040;-73
2021/12/28 03:10:50;;;;;;;11.77;5.28;;;;;;;7.30;100.00;94332.31;5105933;27;20061;-72
2021/12/28 03:13:23;;;;;;;12.02;5.82;;;;;;;7.57;100.00;94343.84;5096312;27;20458;-73
2021/12/28 03:15:51;;;;;;;7.80;4.63;;;;;;;7.47;100.00;94344.41;5111178;27;20046;-73
2021/12/28 03:18:18;;;;;;;8.70;4.53;;;;;;;7.26;100.00;94347.50;5109571;27;20046;-73
2021/12/28 03:20:46;;;;;;;8.32;4.65;;;;;;;6.95;100.00;94336.38;5113499;27;20039;-72
2021/12/28 03:23:16;;;;;;;14.80;6.25;;;;;;;6.51;100.00;94340.91;5092497;28;20043;-72
2021/12/28 03:25:43;;;;;;;17.40;6.05;;;;;;;5.86;100.00;94343.94;5106392;27;20043;-72
2021/12/28 03:28:24;;;;;;;9.43;5.93;;;;;;;5.70;100.00;94334.94;5108937;27;20104;-72
2021/12/28 03:30:54;;;;;;;12.10;6.68;;;;;;;6.01;100.00;94346.22;5104107;28;20031;-73
2021/12/28 03:33:23;;;;;;;7.90;5.15;;;;;;;5.58;100.00;94334.81;5109982;27;20040;-74
2021/12/28 03:35:50;;;;;;;10.18;4.70;;;;;;;5.21;100.00;94326.19;5108719;27;20044;-74
2021/12/28 03:38:18;;;;;;;11.45;4.93;;;;;;;5.04;100.00;94331.06;5114016;27;20039;-73
2021/12/28 03:40:45;;;;;;;11.57;5.75;;;;;;;5.34;100.00;94339.00;5097075;27;20043;-73
2021/12/28 03:43:13;;;;;;;6.97;4.75;;;;;;;5.68;100.00;94329.19;5112965;27;20514;-73
2021/12/28 03:45:40;;;;;;;11.70;6.22;;;;;;;5.99;100.00;94332.72;5109248;27;20061;-73
2021/12/28 03:48:08;;;;;;;13.45;6.05;;;;;;;6.03;100.00;94323.50;5114659;27;20042;-73
2021/12/28 03:50:36;;;;;;;11.93;6.22;;;;;;;6.39;100.00;94321.94;5105146;28;20045;-73
2021/12/28 03:53:04;;;;;;;11.77;7.40;;;;;;;6.16;100.00;94333.75;5109413;27;20039;-73
2021/12/28 03:55:31;;;;;;;10.98;6.35;;;;;;;5.89;100.00;94328.00;5109651;27;20036;-73
2021/12/28 03:58:00;;;;;;;11.43;5.82;;;;;;;5.74;100.00;94336.09;5112049;27;20721;-74
2021/12/28 04:00:31;;;;;;;10.85;5.88;;;;;;;6.15;100.00;94332.16;5114172;27;20039;-74
2021/12/28 04:02:58;;;;;;;14.00;5.95;;;;;;;6.20;100.00;94334.88;5114843;27;20036;-74
2021/12/28 04:05:25;;;;;;;13.23;6.00;;;;;;;6.22;100.00;94338.03;5106234;27;20053;-73
2021/12/28 04:07:52;;;;;;;12.30;5.90;;;;;;;6.22;100.00;94348.38;5114605;27;20039;-74
2021/12/28 04:10:28;;;;;;;13.32;5.68;;;;;;;6.41;100.00;94345.78;5109071;27;20047;-74
2021/12/28 04:12:55;;;;;;;11.45;6.60;;;;;;;6.60;100.00;94344.78;5107603;27;20142;-73
2021/12/28 04:15:23;;;;;;;12.38;6.65;;;;;;;6.83;100.00;94344.09;5118166;27;20047;-74
2021/12/28 04:17:50;;;;;;;9.63;5.93;;;;;;;6.89;100.00;94326.88;5118174;27;20039;-73
2021/12/28 04:20:19;;;;;;;12.15;7.07;;;;;;;7.03;100.00;94328.28;5109083;27;20044;-73
2021/12/28 04:22:46;;;;;;;12.40;6.68;;;;;;;7.05;100.00;94326.25;5112447;27;20054;-73
2021/12/28 04:25:17;;;;;;;15.55;8.20;;;;;;;7.28;100.00;94340.28;5111186;27;20043;-73
2021/12/28 04:27:44;;;;;;;17.63;7.85;;;;;;;7.02;100.00;94337.09;5114841;27;20043;-73
2021/12/28 04:30:13;;;;;;;17.42;8.32;;;;;;;7.04;100.00;94340.25;5109539;27;20701;-73
2021/12/28 04:32:41;;;;;;;21.25;9.75;;;;;;;7.23;100.00;94340.16;5108722;27;20042;-73
2021/12/28 04:35:08;;;;;;;19.10;9.32;;;;;;;7.35;100.00;94335.81;5109352;27;20043;-73
2021/12/28 04:37:36;;;;;;;27.65;11.98;;;;;;;7.42;100.00;94326.13;5111178;27;20292;-73
2021/12/28 04:40:07;;;;;;;26.88;11.02;;;;;;;7.54;100.00;94339.09;5110807;27;20572;-73
2021/12/28 04:42:35;;;;;;;19.73;10.88;;;;;;;7.53;100.00;94341.94;5110047;27;20611;-73
2021/12/28 04:45:02;;;;;;;18.10;8.05;;;;;;;7.44;100.00;94344.84;5114938;27;20032;-73
2021/12/28 04:47:30;;;;;;;22.80;7.93;;;;;;;7.46;100.00;94342.81;5109202;27;20119;-73
2021/12/28 04:49:56;;;;;;;11.32;6.25;;;;;;;7.37;100.00;94333.78;5115660;27;20979;-73
2021/12/28 04:52:23;;;;;;;15.25;7.63;;;;;;;7.44;100.00;94344.84;5110434;27;20057;-73
2021/12/28 04:54:51;;;;;;;12.77;6.95;;;;;;;7.42;100.00;94346.06;5112499;27;20519;-73
2021/12/28 04:57:17;;;;;;;14.85;10.02;;;;;;;7.25;100.00;94338.13;5109270;27;20417;-73
2021/12/28 04:59:44;;;;;;;16.15;8.20;;;;;;;7.34;100.00;94349.75;5119888;27;20122;-73
2021/12/28 05:02:11;;;;;;;14.68;8.15;;;;;;;7.24;100.00;94345.13;5109315;27;20500;-73
2021/12/28 05:04:38;;;;;;;9.60;6.28;;;;;;;7.24;100.00;94358.09;5114524;27;20044;-74
2021/12/28 05:07:05;;;;;;;12.05;6.30;;;;;;;7.17;100.00;94338.47;5103085;28;20826;-73
2021/12/28 05:09:32;;;;;;;8.25;5.05;;;;;;;7.24;100.00;94344.34;5107046;27;20050;-74
2021/12/28 05:11:59;;;;;;;10.18;5.38;;;;;;;7.21;100.00;94344.78;5104634;28;20041;-74
2021/12/28 05:14:26;;;;;;;11.38;5.32;;;;;;;7.14;100.00;94338.91;5093675;28;20142;-74
2021/12/28 05:16:53;;;;;;;9.68;5.18;;;;;;;7.16;100.00;94347.25;5106286;28;20114;-73
2021/12/28 05:19:20;;;;;;;10.38;4.32;;;;;;;7.17;100.00;94338.47;5113413;28;20078;-73
2021/12/28 05:21:47;;;;;;;9.70;5.50;;;;;;;7.25;100.00;94340.72;5110285;28;20038;-73
2021/12/28 05:24:14;;;;;;;8.68;4.53;;;;;;;6.96;99.79;94353.47;5108646;28;20040;-74
2021/12/28 05:26:41;;;;;;;10.38;5.90;;;;;;;6.93;100.00;94348.72;5116558;28;20439;-73
2021/12/28 05:29:08;;;;;;;12.23;6.40;;;;;;;6.82;100.00;94352.06;5110511;28;20523;-74
2021/12/28 05:31:35;;;;;;;21.98;10.50;;;;;;;6.74;100.00;94352.38;5112668;28;20131;-74
2021/12/28 05:34:03;;;;;;;37.47;18.73;;;;;;;6.67;100.00;94358.41;5098863;28;20032;-73
2021/12/28 05:36:29;;;;;;;29.15;17.50;;;;;;;6.24;100.00;94346.38;5112167;28;20050;-73
2021/12/28 05:38:56;;;;;;;28.58;16.13;;;;;;;6.20;100.00;94365.13;5109953;28;20520;-73
2021/12/28 05:41:23;;;;;;;37.03;16.70;;;;;;;6.23;100.00;94365.50;5110932;28;20039;-73
2021/12/28 05:43:50;;;;;;;33.20;17.90;;;;;;;6.19;100.00;94359.16;5105930;28;20043;-73
2021/12/28 05:46:17;;;;;;;45.00;19.40;;;;;;;6.16;100.00;94369.94;5109348;28;20042;-73
2021/12/28 05:48:44;;;;;;;43.78;19.38;;;;;;;6.28;100.00;94373.41;5117584;28;20050;-74
2021/12/28 05:51:11;;;;;;;28.02;13.02;;;;;;;6.28;100.00;94363.06;5109191;28;20039;-74
2021/12/28 05:53:38;;;;;;;30.85;14.35;;;;;;;6.10;100.00;94360.44;5111153;27;20059;-73
2021/12/28 05:56:05;;;;;;;32.20;15.77;;;;;;;5.93;100.00;94373.88;5115436;27;20130;-73
2021/12/28 05:58:32;;;;;;;61.95;24.85;;;;;;;5.88;100.00;94368.56;5112457;27;20070;-73
2021/12/28 06:01:00;;;;;;;55.30;22.30;;;;;;;6.00;100.00;94380.84;5115655;27;20075;-73
2021/12/28 06:03:27;;;;;;;76.68;38.10;;;;;;;5.97;100.00;94381.25;5119795;27;20053;-74
2021/12/28 06:05:54;;;;;;;52.33;24.60;;;;;;;5.75;100.00;94381.59;5111827;27;20847;-73
2021/12/28 06:08:21;;;;;;;28.55;15.32;;;;;;;5.63;100.00;94384.06;5113412;27;20503;-73
2021/12/28 06:10:59;;;;;;;15.68;8.68;;;;;;;5.68;100.00;94384.22;5107152;27;20154;-73
2021/12/28 06:13:26;;;;;;;13.80;7.22;;;;;;;5.70;100.00;94378.84;5115334;27;20119;-73
2021/12/28 06:15:53;;;;;;;12.88;7.85;;;;;;;4.88;100.00;94368.47;5110828;27;20039;-74
2021/12/28 06:18:20;;;;;;;14.60;8.40;;;;;;;4.49;100.00;94388.28;5121583;27;20053;-73
2021/12/28 06:20:47;;;;;;;29.02;9.52;;;;;;;4.53;100.00;94372.19;5111755;27;20107;-74
2021/12/28 06:23:14;;;;;;;17.45;8.77;;;;;;;4.82;100.00;94379.59;5111578;27;20132;-74
2021/12/28 06:25:41;;;;;;;16.77;8.32;;;;;;;4.77;100.00;94375.06;5110772;27;20480;-73
2021/12/28 06:28:08;;;;;;;14.68;6.47;;;;;;;4.95;100.00;94377.78;5092315;27;20043;-73
2021/12/28 06:30:36;;;;;;;14.20;6.00;;;;;;;5.03;100.00;94371.56;5114070;27;20063;-74
2021/12/28 06:33:03;;;;;;;8.30;5.32;;;;;;;5.06;100.00;94376.31;5112694;27;20047;-74
2021/12/28 06:35:30;;;;;;;14.68;6.80;;;;;;;4.99;100.00;94375.56;5108039;27;20047;-73
2021/12/28 06:37:57;;;;;;;9.80;5.53;;;;;;;5.02;100.00;94385.44;5111701;27;20050;-73
2021/12/28 06:40:26;;;;;;;9.93;4.82;;;;;;;4.90;100.00;94387.13;5113008;27;20035;-74
2021/12/28 06:42:53;;;;;;;9.20;5.60;;;;;;;4.92;100.00;94374.81;5109153;27;20054;-73
2021/12/28 06:45:20;;;;;;;10.32;5.70;;;;;;;5.03;100.00;94376.72;5107369;27;20052;-73
2021/12/28 06:47:48;;;;;;;18.92;8.70;;;;;;;4.97;100.00;94372.41;5107173;27;20040;-73
2021/12/28 06:50:15;;;;;;;15.43;7.65;;;;;;;4.91;100.00;94378.38;5108803;27;20040;-73
2021/12/28 06:52:42;;;;;;;9.70;5.97;;;;;;;4.87;100.00;94382.38;5109947;27;20469;-73
2021/12/28 06:55:09;;;;;;;11.02;6.00;;;;;;;4.83;100.00;94376.03;5092194;28;20046;-73
2021/12/28 06:57:37;;;;;;;8.82;5.18;;;;;;;4.84;100.00;94380.19;5107688;27;20053;-73
2021/12/28 07:00:10;;;;;;;8.02;5.35;;;;;;;4.91;100.00;94373.22;5102333;27;20047;-73
2021/12/28 07:02:37;;;;;;;14.77;7.22;;;;;;;5.02;100.00;94375.13;5103861;27;20062;-73
2021/12/28 07:05:05;;;;;;;17.00;8.63;;;;;;;5.14;100.00;94378.63;5105206;27;20115;-73
2021/12/28 07:07:33;;;;;;;17.42;9.15;;;;;;;5.28;100.00;94378.56;5110124;27;20039;-75
2021/12/28 07:10:00;;;;;;;20.33;11.60;;;;;;;5.50;100.00;94387.53;5111394;27;20040;-73
2021/12/28 07:12:27;;;;;;;19.30;9.95;;;;;;;5.62;100.00;94384.28;5104696;27;20046;-74
2021/12/28 07:14:53;;;;;;;25.80;11.63;;;;;;;5.86;100.00;94388.66;5108007;27;20058;-74
2021/12/28 07:17:20;;;;;;;34.67;14.52;;;;;;;5.46;100.00;94388.97;5108358;27;20052;-74
2021/12/28 07:19:47;;;;;;;81.45;34.00;;;;;;;5.37;100.00;94382.47;5115002;27;20127;-74
2021/12/28 07:22:14;;;;;;;63.50;28.42;;;;;;;5.63;100.00;94402.16;5117668;27;20040;-74
2021/12/28 07:24:41;;;;;;;40.92;23.60;;;;;;;5.12;100.00;94393.56;5111835;27;20036;-74
2021/12/28 07:27:08;;;;;;;35.53;19.02;;;;;;;4.90;100.00;94400.81;5114736;27;20039;-74
2021/12/28 07:29:35;;;;;;;46.33;22.90;;;;;;;4.58;100.00;94400.72;5112295;27;20044;-74
2021/12/28 07:32:04;;;;;;;39.03;16.25;;;;;;;4.56;100.00;94412.25;5110520;27;20043;-74
2021/12/28 07:34:32;;;;;;;40.85;19.02;;;;;;;4.67;100.00;94403.88;5104972;27;20031;-74
2021/12/28 07:36:59;;;;;;;25.50;14.13;;;;;;;4.93;100.00;94422.81;5108952;27;20820;-73
2021/12/28 07:39:26;;;;;;;50.55;27.65;;;;;;;4.97;100.00;94413.69;5106547;27;20114;-73
2021/12/28 07:41:53;;;;;;;47.60;25.55;;;;;;;4.99;100.00;94422.03;5107457;27;20051;-73
2021/12/28 07:44:23;;;;;;;30.27;17.30;;;;;;;5.01;100.00;94420.03;5109316;27;20478;-75
2021/12/28 07:46:50;;;;;;;73.43;28.48;;;;;;;5.01;100.00;94414.84;5110382;27;20047;-72
2021/12/28 07:49:17;;;;;;;69.55;20.63;;;;;;;5.17;100.00;94423.91;5111279;27;20042;-71
2021/12/28 07:51:44;;;;;;;48.83;16.85;;;;;;;5.21;100.00;94408.81;5111767;27;20052;-72
2021/12/28 07:54:12;;;;;;;25.08;11.60;;;;;;;5.45;100.00;94415.78;5107826;27;20123;-71
2021/12/28 07:56:39;;;;;;;34.50;14.60;;;;;;;5.39;100.00;94416.63;5104820;28;20039;-71
2021/12/28 07:59:06;;;;;;;19.05;10.80;;;;;;;5.30;100.00;94417.88;5109421;27;20713;-72
2021/12/28 08:01:35;;;;;;;12.05;7.68;;;;;;;5.28;100.00;94419.88;5103956;27;20166;-72
2021/12/28 08:04:02;;;;;;;12.68;7.70;;;;;;;5.25;100.00;94415.13;5108962;27;20035;-72
2021/12/28 08:06:30;;;;;;;18.92;9.02;;;;;;;5.36;100.00;94432.53;5098150;27;20047;-72
2021/12/28 08:08:57;;;;;;;27.92;13.52;;;;;;;5.50;100.00;94436.63;5096369;27;20051;-72
2021/12/28 08:11:24;;;;;;;24.52;12.48;;;;;;;5.65;100.00;94432.94;5102883;27;20044;-72
2021/12/28 08:13:51;;;;;;;29.13;14.68;;;;;;;5.72;100.00;94434.47;5103499;27;20122;-73
2021/12/28 08:16:18;;;;;;;24.63;13.60;;;;;;;5.85;100.00;94430.22;5109028;27;20039;-73
2021/12/28 08:18:45;;;;;;;23.05;13.45;;;;;;;6.00;100.00;94414.44;5108352;27;20780;-73
2021/12/28 08:21:33;;;;;;;30.67;17.17;;;;;;;6.30;100.00;94428.28;5107909;27;20039;-71
2021/12/28 08:24:00;;;;;;;22.27;12.68;;;;;;;6.45;100.00;94422.75;5109471;27;20032;-72
2021/12/28 08:26:27;;;;;;;20.35;11.52;;;;;;;6.68;100.00;94424.72;5108980;27;20044;-72
2021/12/28 08:28:54;;;;;;;17.73;9.95;;;;;;;6.77;100.00;94411.47;5093584;28;20098;-72
2021/12/28 08:31:26;;;;;;;16.00;8.48;;;;;;;6.97;100.00;94412.03;5111115;27;20928;-73
2021/12/28 08:33:53;;;;;;;12.65;7.30;;;;;;;7.04;100.00;94392.03;5107837;27;20044;-73
2021/12/28 08:36:20;;;;;;;11.32;6.70;;;;;;;7.22;100.00;94395.56;5100965;27;20036;-73
2021/12/28 08:38:47;;;;;;;19.50;7.90;;;;;;;7.40;100.00;94400.72;5105454;27;20047;-73
2021/12/28 08:41:16;;;;;;;18.73;10.30;;;;;;;7.54;100.00;94405.69;5106766;27;20051;-72
2021/12/28 08:43:46;;;;;;;16.92;8.82;;;;;;;7.56;100.00;94393.28;5112086;27;20795;-72
2021/12/28 08:46:14;;;;;;;17.30;9.43;;;;;;;7.76;100.00;94398.97;5112910;27;20107;-73
2021/12/28 08:48:41;;;;;;;15.32;7.70;;;;;;;7.92;100.00;94401.91;5106140;27;20118;-72
2021/12/28 08:51:08;;;;;;;13.25;7.15;;;;;;;8.02;100.00;94402.16;5105904;27;20281;-72
2021/12/28 08:53:35;;;;;;;12.60;7.32;;;;;;;8.20;100.00;94399.44;5103868;27;20056;-73
2021/12/28 08:56:03;;;;;;;17.67;10.93;;;;;;;8.42;100.00;94393.72;5098894;27;20043;-72
2021/12/28 08:58:30;;;;;;;17.20;12.30;;;;;;;8.63;100.00;94391.56;5097968;27;20082;-72
2021/12/28 09:00:57;;;;;;;27.65;17.08;;;;;;;8.90;100.00;94387.41;5102503;27;20124;-72
2021/12/28 09:03:24;;;;;;;14.80;10.40;;;;;;;9.07;100.00;94373.69;5082649;28;20137;-71
2021/12/28 09:05:51;;;;;;;13.35;8.20;;;;;;;9.19;100.00;94364.03;5096578;27;20050;-72
2021/12/28 09:08:19;;;;;;;12.35;7.65;;;;;;;9.41;100.00;94371.16;5102134;27;20042;-72
2021/12/28 09:10:46;;;;;;;15.25;8.38;;;;;;;9.58;100.00;94374.56;5099778;28;20475;-72
2021/12/28 09:13:14;;;;;;;11.13;6.07;;;;;;;9.68;100.00;94377.31;5093071;27;20032;-72
2021/12/28 09:15:42;;;;;;;16.55;8.20;;;;;;;9.85;100.00;94377.34;5099346;27;20036;-72
2021/12/28 09:18:10;;;;;;;7.85;5.35;;;;;;;10.10;100.00;94363.91;5100883;28;20067;-71
2021/12/28 09:20:37;;;;;;;9.73;5.00;;;;;;;10.56;100.00;94386.41;5101015;28;20035;-71
2021/12/28 09:23:07;;;;;;;9.82;3.78;;;;;;;10.75;100.00;94369.47;5099590;28;20040;-71
2021/12/28 09:25:34;;;;;;;9.82;4.88;;;;;;;11.08;100.00;94383.38;5101992;28;20585;-72
2021/12/28 09:28:02;;;;;;;5.43;3.53;;;;;;;11.47;100.00;94375.41;5096792;28;20519;-71
2021/12/28 09:30:30;;;;;;;8.05;3.85;;;;;;;11.73;97.08;94379.00;5108357;27;20040;-71
2021/12/28 09:32:57;;;;;;;6.47;3.60;;;;;;;11.92;95.49;94381.28;5106737;27;20171;-70
2021/12/28 09:35:24;;;;;;;6.88;3.63;;;;;;;12.22;92.95;94383.31;5110523;27;20058;-72
2021/12/28 09:37:51;;;;;;;5.43;2.33;;;;;;;12.48;89.81;94378.22;5086835;28;20047;-72
2021/12/28 09:40:18;;;;;;;7.50;2.85;;;;;;;12.86;90.22;94384.19;5110930;27;20083;-72
2021/12/28 09:42:46;;;;;;;9.88;6.40;;;;;;;12.74;88.40;94381.75;5109385;27;20048;-72
2021/12/28 09:45:14;;;;;;;6.97;3.35;;;;;;;12.86;89.15;94378.94;5107287;27;20046;-72
2021/12/28 09:47:43;;;;;;;26.05;11.10;;;;;;;13.04;87.86;94370.63;5108908;27;20605;-72
2021/12/28 09:50:14;;;;;;;6.75;4.95;;;;;;;13.22;86.48;94368.56;5111069;27;20551;-72
2021/12/28 09:52:44;;;;;;;5.53;2.88;;;;;;;13.30;84.42;94357.63;5116387;27;20058;-72
2021/12/28 09:55:13;;;;;;;10.18;4.18;;;;;;;12.88;83.39;94353.34;5114612;27;20039;-72
2021/12/28 09:57:41;;;;;;;24.13;10.50;;;;;;;13.03;84.41;94369.06;5087485;28;20035;-72
2021/12/28 10:00:09;;;;;;;15.48;6.25;;;;;;;13.08;84.07;94371.69;5116936;27;20043;-72
2021/12/28 10:02:36;;;;;;;12.50;5.30;;;;;;;12.92;85.25;94357.00;5117008;27;20750;-73
2021/12/28 10:05:08;;;;;;;5.68;2.30;;;;;;;12.92;83.84;94362.22;5110108;27;20032;-73
2021/12/28 10:07:42;;;;;;;5.07;3.17;;;;;;;12.73;86.71;94362.69;5092502;28;20043;-72
2021/12/28 10:10:10;;;;;;;5.30;3.33;;;;;;;13.16;85.16;94357.31;5111368;27;20118;-72
2021/12/28 10:12:40;;;;;;;6.63;3.88;;;;;;;13.47;84.45;94352.97;5085928;28;20048;-72
2021/12/28 10:15:11;;;;;;;4.85;2.67;;;;;;;13.79;81.21;94359.00;5105510;27;20661;-72
2021/12/28 10:17:40;;;;;;;4.53;3.15;;;;;;;14.16;81.39;94353.47;5107832;27;20054;-72
2021/12/28 10:20:20;;;;;;;6.28;3.80;;;;;;;14.63;80.00;94354.94;5108242;27;20047;-72
2021/12/28 10:22:53;;;;;;;5.90;3.35;;;;;;;14.98;76.68;94350.63;5108371;27;20531;-72
2021/12/28 10:25:23;;;;;;;5.57;3.22;;;;;;;15.49;77.73;94352.94;5110485;27;20046;-72
2021/12/28 10:27:53;;;;;;;5.75;2.92;;;;;;;15.71;69.88;94354.38;5089532;27;20492;-72
2021/12/28 10:30:36;;;;;;;4.65;3.40;;;;;;;16.17;67.49;94361.91;5107704;27;20130;-72
2021/12/28 10:33:10;;;;;;;4.45;3.08;;;;;;;16.31;65.35;94353.34;5104862;27;20047;-72
2021/12/28 10:35:41;;;;;;;6.97;4.35;;;;;;;16.71;63.18;94360.03;5110122;27;20039;-72
2021/12/28 10:38:11;;;;;;;7.45;4.22;;;;;;;16.77;62.83;94352.88;5106096;27;20126;-72
2021/12/28 10:41:03;;;;;;;4.65;2.90;;;;;;;16.78;62.67;94362.31;5107497;27;20036;-73
2021/12/28 10:55:40;;;;;;;8.88;3.55;;;;;;;14.05;72.08;94354.53;5102047;27;20135;-59
2021/12/28 10:58:08;;;;;;;4.40;3.45;;;;;;;13.99;75.36;94343.28;5106770;28;20127;-63
2021/12/28 11:00:42;;;;;;;6.97;3.30;;;;;;;13.94;73.75;94345.91;5112676;28;20501;-63
2021/12/28 11:03:26;;;;;;;5.68;3.38;;;;;;;13.38;75.85;94344.06;5108276;28;20054;-63
2021/12/28 11:05:56;;;;;;;5.43;3.65;;;;;;;13.12;77.26;94345.81;5109115;28;20035;-63
2021/12/28 11:08:25;;;;;;;7.00;4.43;;;;;;;13.11;78.59;94334.59;5110140;28;20415;-62
2021/12/28 11:10:58;;;;;;;6.88;4.78;;;;;;;13.06;79.78;94339.78;5112960;28;20058;-63
2021/12/28 11:13:28;;;;;;;6.78;4.50;;;;;;;12.97;80.21;94333.50;5104231;28;20046;-63
2021/12/28 11:15:57;;;;;;;8.00;3.80;;;;;;;13.10;80.33;94330.38;5108318;28;20036;-63
2021/12/28 11:18:33;;;;;;;4.28;2.92;;;;;;;13.12;79.21;94325.69;5107580;28;20067;-63
2021/12/28 11:21:10;;;;;;;9.20;3.95;;;;;;;13.11;79.27;94324.13;5111693;28;20051;-63
2021/12/28 11:23:37;;;;;;;4.32;3.05;;;;;;;13.01;79.16;94318.84;5111383;28;20122;-63
2021/12/28 11:26:06;;;;;;;9.50;3.80;;;;;;;13.10;78.58;94319.91;5114383;28;20032;-63
2021/12/28 11:28:39;;;;;;;8.35;4.70;;;;;;;13.27;79.26;94313.66;5109441;28;20136;-63
2021/12/28 11:31:12;;;;;;;6.68;3.88;;;;;;;13.33;77.63;94310.06;5113375;28;20043;-63
2021/12/28 11:33:47;;;;;;;19.35;4.65;;;;;;;13.47;77.88;94311.13;5107938;28;20040;-62
2021/12/28 11:36:18;;;;;;;5.53;3.47;;;;;;;13.47;76.59;94303.28;5114616;28;20195;-63
2021/12/28 11:38:45;;;;;;;5.78;3.47;;;;;;;13.43;75.79;94304.81;5104836;28;20040;-63
2021/12/28 11:41:12;;;;;;;4.00;2.58;;;;;;;13.53;76.65;94299.59;5110903;28;20088;-63
2021/12/28 11:43:41;;;;;;;3.17;2.30;;;;;;;13.53;74.65;94296.97;5114201;28;20050;-63
2021/12/28 11:46:09;;;;;;;9.05;3.10;;;;;;;13.48;74.05;94296.19;5110220;28;20523;-63